sensor_id;sensor_type;location;lat;lon;timestamp;pressure;altitude;pressure_sealevel;temperature;humidity
6030;BME280;3043;42.682;23.376;2023-04-23T00:01:28;94881.19;;;10.01;100.00
6030;BME280;3043;42.682;23.376;2023-04-23T00:03:59;94876.22;;;9.93;100.00
6030;BME280;3043;42.682;23.376;2023-04-23T00:06:25;94885.78;;;9.90;100.00
6030;BME280;3043;42.682;23.376;2023-04-23T00:08:53;94877.22;;;9.86;100.00
6030;BME280;3043;42.682;23.376;2023-04-23T00:11:19;94877.19;;;9.88;100.00
6030;BME280;3043;42.682;23.376;2023-04-23T00:13:45;94880.69;;;9.87;100.00
6030;BME280;3043;42.682;23.376;2023-04-23T00:16:13;94878.81;;;9.93;100.00
6030;BME280;3043;42.682;23.376;2023-04-23T00:18:40;94882.44;;;9.85;100.00
6030;BME280;3043;42.682;23.376;2023-04-23T00:21:05;94879.88;;;9.83;100.00
6030;BME280;3043;42.682;23.376;2023-04-23T00:23:32;94888.47;;;9.85;100.00
6030;BME280;3043;42.682;23.376;2023-04-23T00:25:58;94887.69;;;9.82;100.00
6030;BME280;3043;42.682;23.376;2023-04-23T00:28:23;94887.88;;;9.73;100.00
6030;BME280;3043;42.682;23.376;2023-04-23T00:30:49;94884.47;;;9.71;100.00
6030;BME280;3043;42.682;23.376;2023-04-23T00:33:15;94876.88;;;9.65;100.00
6030;BME280;3043;42.682;23.376;2023-04-23T00:35:40;94884.75;;;9.59;100.00
6030;BME280;3043;42.682;23.376;2023-04-23T00:38:06;94878.75;;;9.58;100.00
6030;BME280;3043;42.682;23.376;2023-04-23T00:40:31;94877.84;;;9.61;100.00
6030;BME280;3043;42.682;23.376;2023-04-23T00:42:57;94870.81;;;9.67;100.00
6030;BME280;3043;42.682;23.376;2023-04-23T00:45:23;94871.69;;;9.65;100.00
6030;BME280;3043;42.682;23.376;2023-04-23T00:47:48;94872.66;;;9.61;100.00
6030;BME280;3043;42.682;23.376;2023-04-23T00:50:14;94866.91;;;9.48;100.00
6030;BME280;3043;42.682;23.376;2023-04-23T00:52:40;94874.09;;;9.37;100.00
6030;BME280;3043;42.682;23.376;2023-04-23T00:55:06;94870.16;;;9.20;100.00
6030;BME280;3043;42.682;23.376;2023-04-23T00:57:33;94873.75;;;9.13;100.00
6030;BME280;3043;42.682;23.376;2023-04-23T01:00:00;94865.34;;;9.03;100.00
6030;BME280;3043;42.682;23.376;2023-04-23T01:02:26;94869.84;;;8.92;100.00
6030;BME280;3043;42.682;23.376;2023-04-23T01:04:54;94881.16;;;8.86;100.00
6030;BME280;3043;42.682;23.376;2023-04-23T01:07:20;94878.56;;;8.88;100.00
6030;BME280;3043;42.682;23.376;2023-04-23T01:09:48;94873.41;;;8.88;100.00
6030;BME280;3043;42.682;23.376;2023-04-23T01:12:15;94876.72;;;8.94;100.00
6030;BME280;3043;42.682;23.376;2023-04-23T01:14:42;94874.13;;;8.94;100.00
6030;BME280;3043;42.682;23.376;2023-04-23T01:17:08;94867.38;;;8.87;100.00
6030;BME280;3043;42.682;23.376;2023-04-23T01:19:34;94869.28;;;8.79;100.00
6030;BME280;3043;42.682;23.376;2023-04-23T01:22:00;94860.94;;;8.65;100.00
6030;BME280;3043;42.682;23.376;2023-04-23T01:24:29;94864.63;;;8.52;100.00
6030;BME280;3043;42.682;23.376;2023-04-23T01:26:56;94861.41;;;8.41;100.00
6030;BME280;3043;42.682;23.376;2023-04-23T01:29:23;94866.63;;;8.38;100.00
6030;BME280;3043;42.682;23.376;2023-04-23T01:31:49;94870.94;;;8.38;100.00
6030;BME280;3043;42.682;23.376;2023-04-23T01:34:15;94860.81;;;8.27;100.00
6030;BME280;3043;42.682;23.376;2023-04-23T01:36:42;94864.34;;;8.19;100.00
6030;BME280;3043;42.682;23.376;2023-04-23T01:39:08;94870.38;;;8.19;100.00
6030;BME280;3043;42.682;23.376;2023-04-23T01:41:34;94880.78;;;8.13;100.00
6030;BME280;3043;42.682;23.376;2023-04-23T01:44:00;94879.97;;;8.10;100.00
6030;BME280;3043;42.682;23.376;2023-04-23T01:46:26;94873.75;;;8.24;100.00
6030;BME280;3043;42.682;23.376;2023-04-23T01:48:52;94875.63;;;8.13;100.00
6030;BME280;3043;42.682;23.376;2023-04-23T01:51:18;94871.50;;;8.53;100.00
6030;BME280;3043;42.682;23.376;2023-04-23T01:53:43;94878.22;;;8.60;100.00
6030;BME280;3043;42.682;23.376;2023-04-23T01:56:09;94883.56;;;8.51;100.00
6030;BME280;3043;42.682;23.376;2023-04-23T01:58:35;94879.31;;;8.50;100.00
6030;BME280;3043;42.682;23.376;2023-04-23T02:01:00;94881.00;;;8.51;100.00
6030;BME280;3043;42.682;23.376;2023-04-23T02:03:27;94882.00;;;8.44;100.00
6030;BME280;3043;42.682;23.376;2023-04-23T02:05:54;94884.75;;;8.35;100.00
6030;BME280;3043;42.682;23.376;2023-04-23T02:08:21;94877.66;;;8.45;100.00
6030;BME280;3043;42.682;23.376;2023-04-23T02:10:46;94877.72;;;8.42;100.00
6030;BME280;3043;42.682;23.376;2023-04-23T02:13:12;94874.25;;;8.44;100.00
6030;BME280;3043;42.682;23.376;2023-04-23T02:15:37;94878.59;;;8.42;100.00
6030;BME280;3043;42.682;23.376;2023-04-23T02:18:03;94882.22;;;8.32;100.00
6030;BME280;3043;42.682;23.376;2023-04-23T02:20:29;94886.56;;;8.29;100.00
6030;BME280;3043;42.682;23.376;2023-04-23T02:22:54;94878.81;;;8.30;100.00
6030;BME280;3043;42.682;23.376;2023-04-23T02:25:20;94882.31;;;8.26;100.00
6030;BME280;3043;42.682;23.376;2023-04-23T02:27:47;94890.97;;;8.22;100.00
6030;BME280;3043;42.682;23.376;2023-04-23T02:30:13;94879.75;;;8.26;100.00
6030;BME280;3043;42.682;23.376;2023-04-23T02:32:39;94890.63;;;8.40;100.00
6030;BME280;3043;42.682;23.376;2023-04-23T02:35:05;94884.78;;;8.32;100.00
6030;BME280;3043;42.682;23.376;2023-04-23T02:37:34;94889.22;;;8.24;100.00
6030;BME280;3043;42.682;23.376;2023-04-23T02:39:59;94878.06;;;8.22;100.00
6030;BME280;3043;42.682;23.376;2023-04-23T02:42:25;94890.06;;;8.26;100.00
6030;BME280;3043;42.682;23.376;2023-04-23T02:44:51;94884.06;;;8.24;100.00
6030;BME280;3043;42.682;23.376;2023-04-23T02:47:16;94886.50;;;8.32;100.00
6030;BME280;3043;42.682;23.376;2023-04-23T02:49:42;94887.53;;;8.20;100.00
6030;BME280;3043;42.682;23.376;2023-04-23T02:52:08;94886.28;;;7.94;100.00
6030;BME280;3043;42.682;23.376;2023-04-23T02:54:33;94888.22;;;7.78;100.00
6030;BME280;3043;42.682;23.376;2023-04-23T02:57:01;94888.44;;;7.66;100.00
6030;BME280;3043;42.682;23.376;2023-04-23T02:59:27;94890.22;;;7.61;100.00
6030;BME280;3043;42.682;23.376;2023-04-23T03:01:52;94896.47;;;7.45;100.00
6030;BME280;3043;42.682;23.376;2023-04-23T03:04:18;94886.88;;;7.56;100.00
6030;BME280;3043;42.682;23.376;2023-04-23T03:06:44;94886.03;;;7.54;100.00
6030;BME280;3043;42.682;23.376;2023-04-23T03:09:10;94883.41;;;7.57;100.00
6030;BME280;3043;42.682;23.376;2023-04-23T03:11:36;94886.97;;;7.50;100.00
6030;BME280;3043;42.682;23.376;2023-04-23T03:14:02;94895.63;;;7.43;100.00
6030;BME280;3043;42.682;23.376;2023-04-23T03:16:28;94888.66;;;7.51;100.00
6030;BME280;3043;42.682;23.376;2023-04-23T03:18:54;94891.97;;;7.59;100.00
6030;BME280;3043;42.682;23.376;2023-04-23T03:21:20;94897.88;;;7.66;100.00
6030;BME280;3043;42.682;23.376;2023-04-23T03:23:45;94900.47;;;7.64;100.00
6030;BME280;3043;42.682;23.376;2023-04-23T03:26:10;94902.25;;;7.61;100.00
6030;BME280;3043;42.682;23.376;2023-04-23T03:28:36;94900.59;;;7.55;100.00
6030;BME280;3043;42.682;23.376;2023-04-23T03:31:01;94892.84;;;7.57;100.00
6030;BME280;3043;42.682;23.376;2023-04-23T03:33:27;94900.47;;;7.64;100.00
6030;BME280;3043;42.682;23.376;2023-04-23T03:35:52;94901.91;;;7.83;100.00
6030;BME280;3043;42.682;23.376;2023-04-23T03:38:18;94903.66;;;7.81;100.00
6030;BME280;3043;42.682;23.376;2023-04-23T03:40:43;94914.38;;;7.54;100.00
6030;BME280;3043;42.682;23.376;2023-04-23T03:43:09;94910.66;;;7.73;100.00
6030;BME280;3043;42.682;23.376;2023-04-23T03:45:35;94907.22;;;7.73;100.00
6030;BME280;3043;42.682;23.376;2023-04-23T03:48:00;94908.88;;;7.75;100.00
6030;BME280;3043;42.682;23.376;2023-04-23T03:50:25;94913.06;;;7.84;100.00
6030;BME280;3043;42.682;23.376;2023-04-23T03:52:51;94910.53;;;7.82;100.00
6030;BME280;3043;42.682;23.376;2023-04-23T03:55:16;94914.81;;;7.82;100.00
6030;BME280;3043;42.682;23.376;2023-04-23T03:57:42;94919.19;;;7.77;100.00
6030;BME280;3043;42.682;23.376;2023-04-23T04:00:07;94915.69;;;7.82;100.00
6030;BME280;3043;42.682;23.376;2023-04-23T04:02:36;94918.81;;;7.99;100.00
6030;BME280;3043;42.682;23.376;2023-04-23T04:05:03;94925.88;;;7.88;100.00
6030;BME280;3043;42.682;23.376;2023-04-23T04:07:29;94922.47;;;7.86;100.00
6030;BME280;3043;42.682;23.376;2023-04-23T04:09:54;94922.31;;;7.95;100.00
6030;BME280;3043;42.682;23.376;2023-04-23T04:12:20;94927.91;;;8.24;100.00
6030;BME280;3043;42.682;23.376;2023-04-23T04:14:45;94924.72;;;8.57;100.00
6030;BME280;3043;42.682;23.376;2023-04-23T04:17:11;94934.78;;;8.71;100.00
6030;BME280;3043;42.682;23.376;2023-04-23T04:19:37;94939.13;;;8.69;100.00
6030;BME280;3043;42.682;23.376;2023-04-23T04:22:02;94937.94;;;9.29;100.00
6030;BME280;3043;42.682;23.376;2023-04-23T04:24:28;94939.16;;;9.91;100.00
6030;BME280;3043;42.682;23.376;2023-04-23T04:26:57;94942.94;;;10.16;100.00
6030;BME280;3043;42.682;23.376;2023-04-23T04:29:25;94948.25;;;10.45;100.00
6030;BME280;3043;42.682;23.376;2023-04-23T04:31:52;94946.31;;;11.17;100.00
6030;BME280;3043;42.682;23.376;2023-04-23T04:34:17;94953.78;;;11.87;100.00
6030;BME280;3043;42.682;23.376;2023-04-23T04:36:43;94961.94;;;12.30;100.00
6030;BME280;3043;42.682;23.376;2023-04-23T04:39:09;94964.28;;;12.90;100.00
6030;BME280;3043;42.682;23.376;2023-04-23T04:41:35;94966.75;;;13.19;100.00
6030;BME280;3043;42.682;23.376;2023-04-23T04:44:01;94968.00;;;14.26;100.00
6030;BME280;3043;42.682;23.376;2023-04-23T04:46:26;94971.97;;;14.35;100.00
6030;BME280;3043;42.682;23.376;2023-04-23T04:48:53;94982.31;;;15.41;100.00
6030;BME280;3043;42.682;23.376;2023-04-23T04:51:20;94974.41;;;15.42;100.00
6030;BME280;3043;42.682;23.376;2023-04-23T04:53:45;94988.84;;;15.69;100.00
6030;BME280;3043;42.682;23.376;2023-04-23T04:56:10;94989.00;;;16.78;100.00
6030;BME280;3043;42.682;23.376;2023-04-23T04:58:36;94992.28;;;17.17;100.00
6030;BME280;3043;42.682;23.376;2023-04-23T05:01:01;94983.28;;;17.39;97.73
6030;BME280;3043;42.682;23.376;2023-04-23T05:03:27;94980.31;;;17.30;99.13
6030;BME280;3043;42.682;23.376;2023-04-23T05:05:52;94998.50;;;17.50;96.81
6030;BME280;3043;42.682;23.376;2023-04-23T05:08:22;94993.09;;;17.53;95.46
6030;BME280;3043;42.682;23.376;2023-04-23T05:10:48;94996.53;;;18.03;92.20
6030;BME280;3043;42.682;23.376;2023-04-23T05:13:18;95000.22;;;17.99;91.86
6030;BME280;3043;42.682;23.376;2023-04-23T05:15:45;94990.19;;;18.07;91.43
6030;BME280;3043;42.682;23.376;2023-04-23T05:18:10;94999.25;;;18.65;86.95
6030;BME280;3043;42.682;23.376;2023-04-23T05:20:36;95005.56;;;18.92;82.19
6030;BME280;3043;42.682;23.376;2023-04-23T05:23:02;94998.94;;;19.01;81.19
6030;BME280;3043;42.682;23.376;2023-04-23T05:25:29;94998.59;;;18.91;83.13
6030;BME280;3043;42.682;23.376;2023-04-23T05:27:55;94995.22;;;19.05;81.53
6030;BME280;3043;42.682;23.376;2023-04-23T05:30:21;95002.50;;;18.84;84.15
6030;BME280;3043;42.682;23.376;2023-04-23T05:32:46;95001.13;;;18.93;79.65
6030;BME280;3043;42.682;23.376;2023-04-23T05:35:11;95001.25;;;18.60;82.88
6030;BME280;3043;42.682;23.376;2023-04-23T05:37:37;95000.22;;;18.47;84.38
6030;BME280;3043;42.682;23.376;2023-04-23T05:40:03;95005.38;;;18.95;82.04
6030;BME280;3043;42.682;23.376;2023-04-23T05:42:30;95002.59;;;19.43;76.83
6030;BME280;3043;42.682;23.376;2023-04-23T05:44:56;95006.97;;;19.13;77.21
6030;BME280;3043;42.682;23.376;2023-04-23T05:47:21;95005.06;;;18.39;81.94
6030;BME280;3043;42.682;23.376;2023-04-23T05:49:47;95012.31;;;18.96;78.48
6030;BME280;3043;42.682;23.376;2023-04-23T05:52:12;94996.72;;;18.64;81.10
6030;BME280;3043;42.682;23.376;2023-04-23T05:54:38;94993.22;;;18.79;80.92
6030;BME280;3043;42.682;23.376;2023-04-23T05:57:04;95006.91;;;18.99;80.65
6030;BME280;3043;42.682;23.376;2023-04-23T05:59:30;95002.41;;;19.17;78.85
6030;BME280;3043;42.682;23.376;2023-04-23T06:01:56;95001.81;;;19.27;79.40
6030;BME280;3043;42.682;23.376;2023-04-23T06:04:21;95006.94;;;19.59;77.81
6030;BME280;3043;42.682;23.376;2023-04-23T06:06:46;95004.19;;;20.04;75.46
6030;BME280;3043;42.682;23.376;2023-04-23T06:09:12;95008.50;;;20.47;71.55
6030;BME280;3043;42.682;23.376;2023-04-23T06:11:37;95004.94;;;20.48;71.17
6030;BME280;3043;42.682;23.376;2023-04-23T06:14:03;94992.34;;;20.53;71.69
6030;BME280;3043;42.682;23.376;2023-04-23T06:16:29;94992.78;;;21.53;65.66
6030;BME280;3043;42.682;23.376;2023-04-23T06:18:54;94997.78;;;21.31;67.10
6030;BME280;3043;42.682;23.376;2023-04-23T06:21:23;94983.47;;;21.99;64.46
6030;BME280;3043;42.682;23.376;2023-04-23T06:23:48;94996.19;;;22.68;61.24
6030;BME280;3043;42.682;23.376;2023-04-23T06:26:14;94988.06;;;24.00;55.35
6030;BME280;3043;42.682;23.376;2023-04-23T06:28:45;94988.09;;;24.33;53.37
6030;BME280;3043;42.682;23.376;2023-04-23T06:31:11;94993.47;;;25.09;50.26
6030;BME280;3043;42.682;23.376;2023-04-23T06:33:37;95003.66;;;25.24;48.54
6030;BME280;3043;42.682;23.376;2023-04-23T06:36:03;94977.84;;;24.50;49.64
6030;BME280;3043;42.682;23.376;2023-04-23T06:38:29;94997.84;;;24.21;50.68
6030;BME280;3043;42.682;23.376;2023-04-23T06:40:55;94992.19;;;23.46;53.58
6030;BME280;3043;42.682;23.376;2023-04-23T06:43:20;94999.75;;;23.74;51.94
6030;BME280;3043;42.682;23.376;2023-04-23T06:45:46;94997.06;;;23.16;53.93
6030;BME280;3043;42.682;23.376;2023-04-23T06:48:11;94995.53;;;22.77;57.15
6030;BME280;3043;42.682;23.376;2023-04-23T06:50:37;94989.88;;;23.18;55.14
6030;BME280;3043;42.682;23.376;2023-04-23T06:53:04;94990.09;;;22.91;56.89
6030;BME280;3043;42.682;23.376;2023-04-23T06:55:29;94994.41;;;23.16;55.76
6030;BME280;3043;42.682;23.376;2023-04-23T06:57:55;94985.06;;;23.12;57.29
6030;BME280;3043;42.682;23.376;2023-04-23T07:00:21;94988.19;;;23.64;54.52
6030;BME280;3043;42.682;23.376;2023-04-23T07:02:47;94983.31;;;23.47;55.64
6030;BME280;3043;42.682;23.376;2023-04-23T07:05:13;94983.81;;;23.52;55.65
6030;BME280;3043;42.682;23.376;2023-04-23T07:07:38;94986.38;;;24.10;55.18
6030;BME280;3043;42.682;23.376;2023-04-23T07:10:05;94977.63;;;25.40;49.68
6030;BME280;3043;42.682;23.376;2023-04-23T07:12:31;94991.44;;;25.55;48.40
6030;BME280;3043;42.682;23.376;2023-04-23T07:14:56;94988.16;;;26.45;46.04
6030;BME280;3043;42.682;23.376;2023-04-23T07:17:22;94986.75;;;26.50;44.93
6030;BME280;3043;42.682;23.376;2023-04-23T07:19:47;94987.34;;;26.54;45.89
6030;BME280;3043;42.682;23.376;2023-04-23T07:22:13;94984.59;;;26.65;43.91
6030;BME280;3043;42.682;23.376;2023-04-23T07:24:38;94981.13;;;26.44;44.18
6030;BME280;3043;42.682;23.376;2023-04-23T07:27:05;94991.88;;;27.70;42.66
6030;BME280;3043;42.682;23.376;2023-04-23T07:29:30;94980.94;;;28.12;40.53
6030;BME280;3043;42.682;23.376;2023-04-23T07:31:56;94981.09;;;27.72;41.04
6030;BME280;3043;42.682;23.376;2023-04-23T07:34:21;94978.16;;;27.94;39.58
6030;BME280;3043;42.682;23.376;2023-04-23T07:36:47;94970.19;;;26.28;41.81
6030;BME280;3043;42.682;23.376;2023-04-23T07:39:12;94964.75;;;24.60;45.66
6030;BME280;3043;42.682;23.376;2023-04-23T07:41:38;94978.66;;;23.27;51.00
6030;BME280;3043;42.682;23.376;2023-04-23T07:44:03;94977.19;;;23.23;53.13
6030;BME280;3043;42.682;23.376;2023-04-23T07:46:29;94975.47;;;23.22;54.60
6030;BME280;3043;42.682;23.376;2023-04-23T07:48:54;94980.00;;;23.56;54.56
6030;BME280;3043;42.682;23.376;2023-04-23T07:51:21;94977.03;;;24.39;51.32
6030;BME280;3043;42.682;23.376;2023-04-23T07:53:47;94980.53;;;24.73;49.18
6030;BME280;3043;42.682;23.376;2023-04-23T07:56:15;94976.09;;;25.58;48.11
6030;BME280;3043;42.682;23.376;2023-04-23T07:58:41;94975.56;;;25.96;45.36
6030;BME280;3043;42.682;23.376;2023-04-23T08:01:07;94978.31;;;25.53;45.71
6030;BME280;3043;42.682;23.376;2023-04-23T08:03:32;94980.53;;;24.84;48.11
6030;BME280;3043;42.682;23.376;2023-04-23T08:05:57;94973.34;;;26.01;46.53
6030;BME280;3043;42.682;23.376;2023-04-23T08:08:23;94975.97;;;26.63;44.32
6030;BME280;3043;42.682;23.376;2023-04-23T08:10:48;94973.03;;;25.94;44.24
6030;BME280;3043;42.682;23.376;2023-04-23T08:13:14;94971.84;;;25.87;43.59
6030;BME280;3043;42.682;23.376;2023-04-23T08:15:39;94975.44;;;25.45;44.70
6030;BME280;3043;42.682;23.376;2023-04-23T08:18:05;94968.47;;;25.44;47.48
6030;BME280;3043;42.682;23.376;2023-04-23T08:20:30;94974.88;;;26.45;45.14
6030;BME280;3043;42.682;23.376;2023-04-23T08:22:56;94973.72;;;27.17;42.99
6030;BME280;3043;42.682;23.376;2023-04-23T08:25:22;94971.56;;;27.31;40.42
6030;BME280;3043;42.682;23.376;2023-04-23T08:27:47;94974.38;;;26.90;41.18
6030;BME280;3043;42.682;23.376;2023-04-23T08:30:13;94963.72;;;26.21;42.37
6030;BME280;3043;42.682;23.376;2023-04-23T08:32:38;94961.94;;;26.00;43.43
6030;BME280;3043;42.682;23.376;2023-04-23T08:35:07;94942.75;;;25.76;44.01
6030;BME280;3043;42.682;23.376;2023-04-23T08:37:33;94955.91;;;26.29;43.05
6030;BME280;3043;42.682;23.376;2023-04-23T08:40:02;94949.28;;;25.93;43.96
6030;BME280;3043;42.682;23.376;2023-04-23T08:42:44;94937.13;;;26.11;44.27
6030;BME280;3043;42.682;23.376;2023-04-23T08:45:12;94960.41;;;26.98;41.47
6030;BME280;3043;42.682;23.376;2023-04-23T08:47:39;94953.97;;;27.00;41.14
6030;BME280;3043;42.682;23.376;2023-04-23T08:50:17;94940.00;;;27.08;40.09
6030;BME280;3043;42.682;23.376;2023-04-23T08:52:52;94944.16;;;25.39;42.84
6030;BME280;3043;42.682;23.376;2023-04-23T08:55:17;94948.06;;;23.35;47.67
6030;BME280;3043;42.682;23.376;2023-04-23T08:57:44;94947.28;;;22.26;52.50
6030;BME280;3043;42.682;23.376;2023-04-23T09:00:11;94942.44;;;20.92;57.75
6030;BME280;3043;42.682;23.376;2023-04-23T09:02:45;94941.13;;;20.32;66.13
6030;BME280;3043;42.682;23.376;2023-04-23T09:05:12;94929.97;;;20.69;68.65
6030;BME280;3043;42.682;23.376;2023-04-23T09:07:37;94934.91;;;21.39;61.11
6030;BME280;3043;42.682;23.376;2023-04-23T09:10:04;94935.22;;;22.60;55.78
6030;BME280;3043;42.682;23.376;2023-04-23T09:12:30;94935.06;;;23.21;52.01
6030;BME280;3043;42.682;23.376;2023-04-23T09:14:57;94941.03;;;23.92;50.94
6030;BME280;3043;42.682;23.376;2023-04-23T09:17:23;94932.66;;;24.31;47.78
6030;BME280;3043;42.682;23.376;2023-04-23T09:19:53;94922.16;;;24.85;46.39
6030;BME280;3043;42.682;23.376;2023-04-23T09:25:04;94925.66;;;26.10;42.48
6030;BME280;3043;42.682;23.376;2023-04-23T09:27:29;94919.47;;;25.59;43.35
6030;BME280;3043;42.682;23.376;2023-04-23T09:29:55;94926.97;;;25.34;44.47
6030;BME280;3043;42.682;23.376;2023-04-23T09:32:30;94923.75;;;25.71;42.32
6030;BME280;3043;42.682;23.376;2023-04-23T09:34:55;94932.53;;;25.92;41.34
6030;BME280;3043;42.682;23.376;2023-04-23T09:37:24;94915.13;;;26.60;40.15
6030;BME280;3043;42.682;23.376;2023-04-23T09:39:50;94921.22;;;26.81;40.03
6030;BME280;3043;42.682;23.376;2023-04-23T09:42:22;94905.19;;;26.92;39.68
6030;BME280;3043;42.682;23.376;2023-04-23T09:45:01;94907.91;;;27.30;39.58
6030;BME280;3043;42.682;23.376;2023-04-23T09:47:31;94903.50;;;27.86;38.96
6030;BME280;3043;42.682;23.376;2023-04-23T09:49:57;94891.53;;;28.82;36.79
6030;BME280;3043;42.682;23.376;2023-04-23T09:52:23;94901.16;;;28.66;35.40
6030;BME280;3043;42.682;23.376;2023-04-23T09:54:49;94896.69;;;27.74;35.88
6030;BME280;3043;42.682;23.376;2023-04-23T09:57:15;94895.50;;;26.91;37.08
6030;BME280;3043;42.682;23.376;2023-04-23T09:59:40;94894.06;;;26.68;37.81
6030;BME280;3043;42.682;23.376;2023-04-23T10:02:08;94898.16;;;26.42;37.24
6030;BME280;3043;42.682;23.376;2023-04-23T10:04:34;94881.56;;;26.09;38.78
6030;BME280;3043;42.682;23.376;2023-04-23T10:07:03;94888.63;;;25.79;39.27
6030;BME280;3043;42.682;23.376;2023-04-23T10:09:29;94874.59;;;25.67;39.79
6030;BME280;3043;42.682;23.376;2023-04-23T10:11:59;94870.38;;;24.92;40.82
6030;BME280;3043;42.682;23.376;2023-04-23T10:14:27;94870.25;;;24.29;41.24
6030;BME280;3043;42.682;23.376;2023-04-23T10:17:03;94861.72;;;24.36;42.26
6030;BME280;3043;42.682;23.376;2023-04-23T10:19:29;94866.50;;;24.96;41.09
6030;BME280;3043;42.682;23.376;2023-04-23T10:22:01;94860.09;;;25.71;39.07
6030;BME280;3043;42.682;23.376;2023-04-23T10:24:41;94861.16;;;25.59;38.05
6030;BME280;3043;42.682;23.376;2023-04-23T10:27:12;94857.00;;;25.66;38.72
6030;BME280;3043;42.682;23.376;2023-04-23T10:29:40;94857.06;;;26.36;37.89
6030;BME280;3043;42.682;23.376;2023-04-23T10:32:06;94854.41;;;27.14;35.57
6030;BME280;3043;42.682;23.376;2023-04-23T10:34:32;94851.16;;;26.63;35.08
6030;BME280;3043;42.682;23.376;2023-04-23T10:37:00;94844.59;;;25.97;36.14
6030;BME280;3043;42.682;23.376;2023-04-23T10:39:33;94838.50;;;25.55;37.00
6030;BME280;3043;42.682;23.376;2023-04-23T10:42:01;94834.78;;;25.37;35.97
6030;BME280;3043;42.682;23.376;2023-04-23T10:44:41;94837.00;;;25.32;36.20
6030;BME280;3043;42.682;23.376;2023-04-23T10:47:14;94836.59;;;25.05;36.58
6030;BME280;3043;42.682;23.376;2023-04-23T10:49:40;94834.06;;;24.83;36.95
6030;BME280;3043;42.682;23.376;2023-04-23T10:52:13;94824.22;;;24.74;36.67
6030;BME280;3043;42.682;23.376;2023-04-23T10:54:41;94819.59;;;24.87;36.78
6030;BME280;3043;42.682;23.376;2023-04-23T10:57:08;94820.28;;;25.00;36.15
6030;BME280;3043;42.682;23.376;2023-04-23T10:59:37;94808.22;;;24.96;35.36
6030;BME280;3043;42.682;23.376;2023-04-23T11:02:08;94821.72;;;24.93;33.97
6030;BME280;3043;42.682;23.376;2023-04-23T11:04:35;94811.38;;;24.70;35.32
6030;BME280;3043;42.682;23.376;2023-04-23T11:07:09;94808.59;;;24.60;35.25
6030;BME280;3043;42.682;23.376;2023-04-23T11:12:12;94803.97;;;24.84;34.25
6030;BME280;3043;42.682;23.376;2023-04-23T11:17:06;94806.41;;;24.76;34.15
6030;BME280;3043;42.682;23.376;2023-04-23T11:19:38;94796.13;;;24.51;34.14
6030;BME280;3043;42.682;23.376;2023-04-23T11:24:37;94787.31;;;23.86;33.15
6030;BME280;3043;42.682;23.376;2023-04-23T11:27:16;94782.78;;;23.77;35.08
6030;BME280;3043;42.682;23.376;2023-04-23T11:29:44;94786.34;;;23.43;34.99
6030;BME280;3043;42.682;23.376;2023-04-23T11:32:10;94776.16;;;23.38;35.31
6030;BME280;3043;42.682;23.376;2023-04-23T11:34:39;94777.47;;;23.66;33.96
6030;BME280;3043;42.682;23.376;2023-04-23T11:37:09;94774.13;;;23.97;33.85
6030;BME280;3043;42.682;23.376;2023-04-23T11:39:35;94765.25;;;24.40;34.13
6030;BME280;3043;42.682;23.376;2023-04-23T11:42:00;94767.47;;;24.56;33.48
6030;BME280;3043;42.682;23.376;2023-04-23T11:44:28;94767.22;;;24.59;33.72
6030;BME280;3043;42.682;23.376;2023-04-23T11:47:00;94767.66;;;24.75;31.60
6030;BME280;3043;42.682;23.376;2023-04-23T11:49:28;94767.03;;;24.40;32.37
6030;BME280;3043;42.682;23.376;2023-04-23T11:51:54;94756.56;;;23.96;33.63
6030;BME280;3043;42.682;23.376;2023-04-23T11:54:24;94756.09;;;23.80;33.42
6030;BME280;3043;42.682;23.376;2023-04-23T11:56:52;94756.81;;;23.49;33.10
6030;BME280;3043;42.682;23.376;2023-04-23T11:59:18;94751.97;;;23.21;33.95
6030;BME280;3043;42.682;23.376;2023-04-23T12:01:48;94750.22;;;22.75;34.36
6030;BME280;3043;42.682;23.376;2023-04-23T12:04:19;94737.44;;;22.58;35.06
6030;BME280;3043;42.682;23.376;2023-04-23T12:06:46;94766.22;;;22.14;35.11
6030;BME280;3043;42.682;23.376;2023-04-23T12:09:13;94754.84;;;21.65;36.31
6030;BME280;3043;42.682;23.376;2023-04-23T12:11:40;94748.16;;;21.49;35.62
6030;BME280;3043;42.682;23.376;2023-04-23T12:14:07;94741.66;;;21.29;36.68
6030;BME280;3043;42.682;23.376;2023-04-23T12:19:02;94733.78;;;21.65;39.24
6030;BME280;3043;42.682;23.376;2023-04-23T12:21:28;94725.84;;;21.90;37.41
6030;BME280;3043;42.682;23.376;2023-04-23T12:23:55;94730.69;;;21.48;36.43
6030;BME280;3043;42.682;23.376;2023-04-23T12:26:21;94728.69;;;20.76;38.25
6030;BME280;3043;42.682;23.376;2023-04-23T12:28:53;94730.63;;;20.35;39.41
6030;BME280;3043;42.682;23.376;2023-04-23T12:31:26;94719.25;;;20.22;40.33
6030;BME280;3043;42.682;23.376;2023-04-23T12:33:56;94722.41;;;20.27;40.06
6030;BME280;3043;42.682;23.376;2023-04-23T12:36:26;94725.69;;;20.04;40.63
6030;BME280;3043;42.682;23.376;2023-04-23T12:38:51;94722.81;;;20.21;41.55
6030;BME280;3043;42.682;23.376;2023-04-23T12:41:17;94717.25;;;19.99;41.00
6030;BME280;3043;42.682;23.376;2023-04-23T12:43:42;94715.34;;;20.01;39.95
6030;BME280;3043;42.682;23.376;2023-04-23T12:46:13;94716.72;;;19.80;40.22
6030;BME280;3043;42.682;23.376;2023-04-23T12:48:38;94712.72;;;19.74;40.50
6030;BME280;3043;42.682;23.376;2023-04-23T12:51:04;94705.41;;;19.79;40.60
6030;BME280;3043;42.682;23.376;2023-04-23T12:53:31;94711.28;;;19.83;39.67
6030;BME280;3043;42.682;23.376;2023-04-23T12:55:56;94719.94;;;19.44;40.09
6030;BME280;3043;42.682;23.376;2023-04-23T12:58:22;94715.38;;;19.33;40.15
6030;BME280;3043;42.682;23.376;2023-04-23T13:00:53;94714.59;;;19.31;40.04
6030;BME280;3043;42.682;23.376;2023-04-23T13:03:19;94710.91;;;19.48;39.95
6030;BME280;3043;42.682;23.376;2023-04-23T13:05:44;94706.13;;;19.55;39.58
6030;BME280;3043;42.682;23.376;2023-04-23T13:08:10;94714.56;;;19.60;38.18
6030;BME280;3043;42.682;23.376;2023-04-23T13:10:35;94717.28;;;19.58;38.64
6030;BME280;3043;42.682;23.376;2023-04-23T13:13:01;94716.94;;;19.77;38.07
6030;BME280;3043;42.682;23.376;2023-04-23T13:15:26;94709.13;;;19.89;37.99
6030;BME280;3043;42.682;23.376;2023-04-23T13:18:01;94708.00;;;20.06;38.00
6030;BME280;3043;42.682;23.376;2023-04-23T13:20:26;94707.00;;;20.08;37.06